Time;durP1;ratioP1;P1;durP2;ratioP2;P2;SDS_P1;SDS_P2;PMS_P1;PMS_P2;Temp;Humidity;BMP_temperature;BMP_pressure;BME280_temperature;BME280_humidity;BME280_pressure;Samples;Min_cycle;Max_cycle;Signal;HPM_P1;HPM_P2
2022/04/29 00:00:30;;;;;;;2.03;1.83;;;18.40;63.70;;;;;;5012520;28;20034;-68
2022/04/29 00:02:55;;;;;;;2.40;1.85;;;18.40;63.80;;;;;;5011391;28;20096;-68
2022/04/29 00:05:21;;;;;;;3.85;2.10;;;18.40;63.80;;;;;;5011237;28;20112;-69
2022/04/29 00:07:47;;;;;;;1.70;1.60;;;18.40;63.80;;;;;;5011437;28;20021;-68
2022/04/29 00:10:14;;;;;;;3.00;1.92;;;18.40;63.90;;;;;;5012360;28;20026;-68
2022/04/29 00:12:41;;;;;;;3.22;2.22;;;18.40;63.90;;;;;;5012199;28;20065;-68
2022/04/29 00:15:08;;;;;;;2.30;1.80;;;18.40;63.90;;;;;;5010987;28;20481;-68
2022/04/29 00:17:34;;;;;;;3.70;1.80;;;18.40;63.90;;;;;;5011422;28;20046;-69
2022/04/29 00:20:00;;;;;;;2.28;2.00;;;18.40;63.90;;;;;;5011193;28;20457;-68
2022/04/29 00:22:25;;;;;;;2.92;1.90;;;18.40;64.00;;;;;;5019732;28;20018;-68
2022/04/29 00:24:51;;;;;;;1.65;1.55;;;18.40;64.00;;;;;;5031744;28;20105;-68
2022/04/29 00:27:17;;;;;;;2.15;1.80;;;18.40;64.00;;;;;;5032088;28;20106;-68
2022/04/29 00:29:42;;;;;;;3.05;2.00;;;18.40;64.00;;;;;;5032119;28;20252;-68
2022/04/29 00:32:08;;;;;;;2.20;1.70;;;18.40;64.00;;;;;;5030781;28;20104;-68
2022/04/29 00:34:33;;;;;;;2.15;1.95;;;18.40;64.10;;;;;;5014310;28;20033;-69
2022/04/29 00:36:59;;;;;;;3.75;2.15;;;18.40;64.00;;;;;;5034701;28;20032;-68
2022/04/29 00:39:25;;;;;;;2.15;1.95;;;18.40;64.10;;;;;;5017963;28;20022;-68
2022/04/29 00:41:51;;;;;;;2.83;2.03;;;18.40;64.10;;;;;;5034351;28;20175;-68
2022/04/29 00:44:17;;;;;;;3.75;2.10;;;18.40;64.10;;;;;;5034443;28;20100;-68
2022/04/29 00:46:43;;;;;;;1.98;1.67;;;18.30;64.20;;;;;;5034452;28;20518;-68
2022/04/29 00:49:12;;;;;;;2.35;1.92;;;18.40;64.20;;;;;;5018131;28;20096;-68
2022/04/29 00:51:38;;;;;;;2.72;2.20;;;18.30;64.20;;;;;;5018082;28;20499;-69
2022/04/29 00:54:09;;;;;;;2.50;1.67;;;18.30;64.20;;;;;;5033713;28;20032;-68
2022/04/29 00:56:37;;;;;;;2.13;2.00;;;18.40;64.20;;;;;;5035778;28;20499;-69
2022/04/29 00:59:08;;;;;;;3.92;2.10;;;18.30;64.20;;;;;;5017758;28;20521;-69
2022/04/29 01:01:37;;;;;;;2.83;2.08;;;18.40;64.30;;;;;;5017826;28;20284;-69
2022/04/29 01:04:03;;;;;;;2.63;1.95;;;18.30;64.20;;;;;;5035350;28;20044;-68
2022/04/29 01:06:28;;;;;;;2.03;1.88;;;18.30;64.20;;;;;;5033920;28;20104;-68
2022/04/29 01:08:54;;;;;;;3.03;1.90;;;18.30;64.30;;;;;;5033848;28;20104;-69
2022/04/29 01:11:23;;;;;;;2.35;1.90;;;18.30;64.30;;;;;;5035168;28;20026;-69
2022/04/29 01:13:50;;;;;;;3.17;2.08;;;18.30;64.30;;;;;;5034027;28;20032;-69
2022/04/29 01:16:16;;;;;;;2.03;1.83;;;18.40;64.40;;;;;;5033833;28;20017;-68
2022/04/29 01:18:43;;;;;;;2.97;2.13;;;18.40;64.40;;;;;;5034102;28;20021;-69
2022/04/29 01:21:09;;;;;;;2.10;1.90;;;18.40;64.50;;;;;;5033651;28;20040;-68
2022/04/29 01:23:35;;;;;;;2.08;1.80;;;18.30;64.40;;;;;;5033520;28;20026;-68
2022/04/29 01:26:01;;;;;;;3.42;1.95;;;18.30;64.40;;;;;;5033683;28;20038;-68
2022/04/29 01:28:28;;;;;;;2.13;1.92;;;18.30;64.40;;;;;;5033697;28;20076;-68
2022/04/29 01:30:54;;;;;;;2.13;1.92;;;18.30;64.40;;;;;;5033559;28;20080;-69
2022/04/29 01:33:19;;;;;;;3.28;2.38;;;18.30;64.50;;;;;;5033500;28;20022;-68
2022/04/29 01:35:46;;;;;;;3.30;2.10;;;18.40;64.50;;;;;;5017224;28;20076;-69
2022/04/29 01:38:11;;;;;;;3.25;2.03;;;18.30;64.50;;;;;;5034613;28;20029;-68
2022/04/29 01:40:37;;;;;;;2.20;2.00;;;18.30;64.60;;;;;;5034432;28;20050;-68
2022/04/29 01:43:03;;;;;;;2.10;2.00;;;18.30;64.60;;;;;;5034530;28;20446;-69
2022/04/29 01:45:29;;;;;;;2.17;1.83;;;18.30;64.60;;;;;;5034690;28;20030;-68
2022/04/29 01:47:54;;;;;;;2.72;1.90;;;18.30;64.60;;;;;;5033857;28;20036;-69
2022/04/29 01:50:20;;;;;;;2.75;1.80;;;18.30;64.60;;;;;;5034302;28;20488;-69
2022/04/29 01:52:46;;;;;;;2.28;2.00;;;18.30;64.60;;;;;;5034327;28;20017;-69
2022/04/29 01:55:11;;;;;;;1.98;1.55;;;18.30;64.60;;;;;;5033981;28;20499;-68
2022/04/29 01:57:37;;;;;;;2.08;1.88;;;18.30;64.70;;;;;;5034293;28;20018;-69
2022/04/29 02:00:06;;;;;;;3.95;2.40;;;18.30;64.60;;;;;;5033285;28;20060;-69
2022/04/29 02:02:32;;;;;;;3.25;2.17;;;18.30;64.70;;;;;;5033053;28;20156;-69
2022/04/29 02:04:57;;;;;;;2.00;1.80;;;18.30;64.70;;;;;;5033108;28;20041;-68
2022/04/29 02:07:23;;;;;;;2.13;1.92;;;18.30;64.70;;;;;;5033856;28;20028;-69
2022/04/29 02:09:49;;;;;;;2.75;2.20;;;18.30;64.70;;;;;;5034068;28;20032;-69
2022/04/29 02:12:15;;;;;;;2.35;1.77;;;18.30;64.80;;;;;;5033953;28;20099;-68
2022/04/29 02:14:42;;;;;;;2.58;2.38;;;18.30;64.80;;;;;;5034286;28;20022;-68
2022/04/29 02:17:08;;;;;;;2.60;1.98;;;18.30;64.80;;;;;;5032754;28;20076;-69
2022/04/29 02:19:34;;;;;;;2.22;2.03;;;18.30;65.30;;;;;;5032583;28;20017;-69
2022/04/29 02:22:00;;;;;;;3.38;2.10;;;18.30;64.80;;;;;;5033614;28;20550;-68
2022/04/29 02:24:26;;;;;;;2.17;1.98;;;18.20;64.80;;;;;;5033886;28;20570;-68
2022/04/29 02:26:53;;;;;;;2.28;1.88;;;18.30;64.80;;;;;;5033952;28;20018;-69
2022/04/29 02:29:19;;;;;;;3.17;2.10;;;18.30;64.90;;;;;;5032613;28;20030;-68
2022/04/29 02:31:45;;;;;;;2.40;2.20;;;18.20;64.80;;;;;;5032403;28;20026;-69
2022/04/29 02:34:11;;;;;;;2.33;2.05;;;18.30;64.90;;;;;;5033565;28;20028;-68
2022/04/29 02:36:37;;;;;;;2.65;1.90;;;18.20;64.80;;;;;;5032498;28;20021;-68
2022/04/29 02:39:03;;;;;;;2.58;2.00;;;18.30;64.90;;;;;;5032318;28;20028;-69
2022/04/29 02:41:29;;;;;;;2.00;1.90;;;18.30;64.90;;;;;;5032161;28;20045;-69
2022/04/29 02:43:54;;;;;;;1.90;1.70;;;18.20;64.90;;;;;;5033500;28;20499;-68
2022/04/29 02:46:20;;;;;;;2.25;2.05;;;18.20;64.90;;;;;;5032124;28;20021;-69
2022/04/29 02:48:48;;;;;;;2.28;1.95;;;18.20;65.00;;;;;;5032330;28;20025;-68
2022/04/29 02:51:15;;;;;;;2.72;1.90;;;18.20;65.00;;;;;;5032783;28;20075;-69
2022/04/29 02:53:41;;;;;;;2.28;2.08;;;18.20;65.00;;;;;;5032100;28;20556;-69
2022/04/29 02:56:07;;;;;;;3.55;2.00;;;18.30;65.00;;;;;;5033204;28;20017;-68
2022/04/29 02:58:32;;;;;;;2.85;1.90;;;18.20;65.00;;;;;;5032809;28;20030;-69
2022/04/29 03:00:58;;;;;;;4.60;2.10;;;18.20;65.00;;;;;;5032443;28;20030;-69
2022/04/29 03:03:24;;;;;;;2.38;1.92;;;18.20;65.00;;;;;;5033086;28;20498;-69
2022/04/29 03:05:49;;;;;;;2.47;1.92;;;18.20;65.00;;;;;;5032840;28;20036;-68
2022/04/29 03:08:15;;;;;;;6.63;1.98;;;18.20;65.00;;;;;;5032802;28;20033;-69
2022/04/29 03:10:41;;;;;;;2.78;2.03;;;18.20;65.10;;;;;;5032088;28;20029;-69
2022/04/29 03:13:06;;;;;;;2.40;2.20;;;18.20;65.10;;;;;;5031491;28;20511;-68
2022/04/29 03:15:33;;;;;;;2.10;2.00;;;18.20;65.10;;;;;;5031745;28;20033;-69
2022/04/29 03:20:45;;;;;;;2.35;1.80;;;18.20;65.10;;;;;;5032668;28;20534;-69
2022/04/29 03:23:11;;;;;;;2.22;2.00;;;18.20;65.20;;;;;;5031193;28;20392;-68
2022/04/29 03:25:37;;;;;;;2.65;1.90;;;18.20;65.20;;;;;;5031600;28;20176;-68
2022/04/29 03:28:05;;;;;;;3.25;2.10;;;18.10;65.10;;;;;;5031591;28;20029;-68
2022/04/29 03:30:31;;;;;;;2.15;1.83;;;18.10;65.20;;;;;;5015166;28;20446;-68
2022/04/29 03:32:57;;;;;;;3.40;2.08;;;18.10;65.10;;;;;;5031382;28;20104;-68
2022/04/29 03:35:23;;;;;;;3.17;2.00;;;18.20;65.20;;;;;;5031318;28;20086;-68
2022/04/29 03:37:51;;;;;;;2.28;1.88;;;18.20;65.20;;;;;;5032532;28;20140;-68
2022/04/29 03:40:21;;;;;;;1.88;1.70;;;18.10;65.20;;;;;;5015003;28;20037;-68
2022/04/29 03:42:48;;;;;;;2.35;2.03;;;18.20;65.20;;;;;;5032559;28;20036;-69
2022/04/29 03:45:13;;;;;;;1.88;1.77;;;18.20;65.20;;;;;;5032396;28;20029;-68
2022/04/29 03:47:39;;;;;;;2.28;2.00;;;18.20;65.30;;;;;;5032363;28;20021;-68
2022/04/29 03:50:05;;;;;;;2.25;1.85;;;18.20;65.20;;;;;;5032261;28;20024;-68
2022/04/29 03:52:31;;;;;;;2.20;2.00;;;18.20;65.20;;;;;;5031107;28;20021;-69
2022/04/29 03:54:57;;;;;;;2.08;1.90;;;18.20;65.20;;;;;;5014572;28;20399;-68
2022/04/29 03:57:22;;;;;;;1.88;1.73;;;18.10;65.20;;;;;;5032266;28;20081;-69
2022/04/29 03:59:50;;;;;;;1.80;1.70;;;18.20;65.30;;;;;;5031078;28;20560;-68
2022/04/29 04:02:16;;;;;;;2.17;1.98;;;18.20;65.30;;;;;;5032058;28;20036;-68
2022/04/29 04:04:42;;;;;;;1.90;1.80;;;18.20;65.30;;;;;;5032411;28;20034;-68
2022/04/29 04:07:07;;;;;;;2.33;2.13;;;18.10;65.20;;;;;;5032016;28;20025;-68
2022/04/29 04:09:33;;;;;;;1.70;1.60;;;18.10;65.20;;;;;;5030975;28;20489;-68
2022/04/29 04:11:59;;;;;;;2.67;1.70;;;18.20;65.30;;;;;;5035188;28;20033;-68
2022/04/29 04:14:25;;;;;;;5.32;2.10;;;18.10;65.30;;;;;;5036111;28;20151;-68
2022/04/29 04:16:50;;;;;;;2.15;2.00;;;18.20;65.40;;;;;;5036000;28;20026;-68
2022/04/29 04:19:16;;;;;;;2.25;2.00;;;18.10;65.30;;;;;;5036160;28;20041;-68
2022/04/29 04:21:42;;;;;;;2.70;2.00;;;18.20;65.40;;;;;;5035892;28;20033;-69
2022/04/29 04:24:07;;;;;;;2.08;1.70;;;18.10;65.40;;;;;;5036314;28;20052;-68
2022/04/29 04:26:33;;;;;;;2.38;1.90;;;18.10;65.40;;;;;;5035869;28;20033;-68
2022/04/29 04:28:59;;;;;;;2.00;1.73;;;18.10;65.40;;;;;;5034722;28;20399;-68
2022/04/29 04:31:24;;;;;;;1.80;1.70;;;18.10;65.40;;;;;;5035506;28;20484;-69
2022/04/29 04:33:53;;;;;;;2.10;1.88;;;18.10;65.40;;;;;;5034808;28;20041;-68
2022/04/29 04:36:19;;;;;;;2.05;1.92;;;18.10;65.40;;;;;;5018350;28;20025;-68
2022/04/29 04:38:47;;;;;;;4.07;1.80;;;18.10;65.50;;;;;;5035841;28;20388;-69
2022/04/29 04:41:16;;;;;;;2.00;1.77;;;18.10;65.40;;;;;;5034326;28;20115;-68
2022/04/29 04:43:44;;;;;;;2.25;2.00;;;18.10;65.50;;;;;;5034668;28;20022;-69
2022/04/29 04:46:12;;;;;;;1.88;1.77;;;18.10;65.50;;;;;;5034524;28;20395;-68
2022/04/29 04:48:37;;;;;;;2.53;1.85;;;18.10;65.50;;;;;;5034565;28;20018;-69
2022/04/29 04:51:04;;;;;;;1.90;1.80;;;18.10;65.50;;;;;;5035541;28;20401;-69
2022/04/29 04:53:30;;;;;;;1.98;1.80;;;18.10;65.50;;;;;;5034156;28;20403;-68
2022/04/29 04:55:55;;;;;;;2.03;1.92;;;18.10;65.50;;;;;;5035578;28;20009;-68
2022/04/29 04:58:21;;;;;;;1.88;1.77;;;18.10;65.50;;;;;;5035426;28;20495;-68
2022/04/29 05:00:47;;;;;;;1.85;1.75;;;18.10;65.50;;;;;;5034007;28;20399;-69
2022/04/29 05:03:12;;;;;;;2.47;1.98;;;18.10;65.60;;;;;;5035350;28;20053;-68
2022/04/29 05:05:39;;;;;;;1.80;1.70;;;18.10;65.60;;;;;;5035239;28;20112;-68
2022/04/29 05:08:05;;;;;;;2.75;2.03;;;18.10;65.60;;;;;;5034200;28;20075;-68
2022/04/29 05:10:30;;;;;;;1.83;1.73;;;18.10;65.60;;;;;;5034001;28;20025;-68
2022/04/29 05:12:56;;;;;;;1.83;1.73;;;18.10;65.70;;;;;;5035148;28;20028;-68
2022/04/29 05:15:22;;;;;;;1.75;1.60;;;18.10;65.60;;;;;;5033874;28;20025;-68
2022/04/29 05:17:48;;;;;;;1.85;1.75;;;18.10;65.60;;;;;;5030419;28;20030;-69
2022/04/29 05:20:15;;;;;;;3.60;2.17;;;18.00;65.60;;;;;;5035104;28;20026;-68
2022/04/29 05:22:41;;;;;;;2.05;1.90;;;18.00;65.60;;;;;;5034312;28;20017;-68
2022/04/29 05:25:07;;;;;;;3.90;2.10;;;18.10;65.70;;;;;;5033170;28;20037;-68
2022/04/29 05:27:33;;;;;;;1.92;1.70;;;18.00;65.60;;;;;;5033409;28;20025;-68
2022/04/29 05:29:59;;;;;;;3.70;1.90;;;18.00;65.60;;;;;;5034669;28;20026;-68
2022/04/29 05:32:25;;;;;;;1.95;1.75;;;18.10;65.70;;;;;;5034642;28;20018;-68
2022/04/29 05:34:50;;;;;;;2.58;2.15;;;18.00;65.70;;;;;;5034581;28;20025;-68
2022/04/29 05:37:16;;;;;;;1.88;1.75;;;18.10;65.70;;;;;;5034960;28;20017;-68
2022/04/29 05:42:26;;;;;;;2.88;1.88;;;18.10;65.80;;;;;;5034519;28;20036;-68
2022/04/29 05:44:51;;;;;;;2.70;2.00;;;18.00;65.70;;;;;;5033339;28;20112;-68
2022/04/29 05:47:17;;;;;;;1.85;1.75;;;18.00;65.70;;;;;;5033427;28;20512;-68
2022/04/29 05:49:43;;;;;;;1.80;1.70;;;18.10;65.80;;;;;;5034571;28;20060;-68
2022/04/29 05:52:09;;;;;;;1.73;1.58;;;18.00;65.80;;;;;;5034439;28;20047;-68
2022/04/29 05:54:34;;;;;;;2.67;2.00;;;18.00;65.80;;;;;;5021653;28;20026;-68
2022/04/29 05:57:01;;;;;;;4.70;1.70;;;18.10;65.80;;;;;;5046635;28;20026;-68
2022/04/29 05:59:27;;;;;;;1.90;1.80;;;18.00;65.80;;;;;;5014455;28;20056;-68
2022/04/29 06:01:53;;;;;;;3.95;1.90;;;18.00;65.80;;;;;;5046118;28;20026;-68
2022/04/29 06:04:18;;;;;;;1.73;1.63;;;18.00;65.70;;;;;;5046354;28;20037;-68
2022/04/29 06:06:44;;;;;;;2.53;2.33;;;18.00;65.80;;;;;;5014570;28;20022;-67
2022/04/29 06:09:10;;;;;;;2.85;2.38;;;18.00;65.60;;;;;;5014245;28;20036;-67
2022/04/29 06:11:35;;;;;;;2.63;2.40;;;18.00;65.40;;;;;;5014338;28;20033;-68
2022/04/29 06:14:01;;;;;;;3.13;2.38;;;17.90;65.30;;;;;;5045886;28;20045;-68
2022/04/29 06:16:27;;;;;;;2.88;2.63;;;17.90;65.30;;;;;;5012992;28;20408;-68
2022/04/29 06:18:52;;;;;;;2.63;2.42;;;17.90;65.40;;;;;;5023691;28;20488;-68
2022/04/29 06:21:19;;;;;;;2.53;2.33;;;17.80;65.30;;;;;;5032838;28;20404;-68
2022/04/29 06:23:46;;;;;;;2.55;2.17;;;17.80;65.20;;;;;;5032641;28;20030;-69
2022/04/29 06:26:11;;;;;;;2.38;2.10;;;17.80;65.20;;;;;;5032732;28;20017;-70
2022/04/29 06:28:37;;;;;;;3.08;2.15;;;17.80;65.20;;;;;;5024793;28;20515;-70
2022/04/29 06:31:03;;;;;;;3.22;2.55;;;17.80;65.10;;;;;;5026275;28;20155;-70
2022/04/29 06:33:32;;;;;;;2.70;2.50;;;17.80;65.10;;;;;;5030601;28;20029;-69
2022/04/29 06:35:58;;;;;;;2.35;2.15;;;17.80;65.00;;;;;;5032410;28;20071;-70
2022/04/29 06:38:24;;;;;;;2.33;2.17;;;17.80;65.00;;;;;;5030846;28;20021;-70
2022/04/29 06:40:50;;;;;;;2.90;2.00;;;17.80;65.00;;;;;;5031364;28;20073;-70
2022/04/29 06:43:16;;;;;;;3.17;2.53;;;17.80;65.00;;;;;;5033420;28;20167;-70
2022/04/29 06:45:42;;;;;;;2.97;2.65;;;17.80;66.10;;;;;;5032014;28;20029;-70
2022/04/29 06:48:08;;;;;;;3.67;2.70;;;17.80;65.00;;;;;;5032110;28;20063;-69
2022/04/29 06:50:34;;;;;;;3.28;2.25;;;17.80;65.00;;;;;;5030914;28;20072;-69
2022/04/29 06:52:59;;;;;;;4.07;2.45;;;17.70;64.80;;;;;;5031918;28;20037;-69
2022/04/29 06:55:25;;;;;;;3.00;2.65;;;17.70;64.80;;;;;;5031349;28;20021;-70
2022/04/29 06:57:52;;;;;;;3.83;2.70;;;17.80;64.90;;;;;;5031068;28;20021;-69
2022/04/29 07:00:19;;;;;;;4.07;2.72;;;17.70;64.80;;;;;;5031382;28;20044;-69
2022/04/29 07:02:44;;;;;;;7.18;2.50;;;17.70;64.80;;;;;;5032454;28;20017;-69
2022/04/29 07:05:10;;;;;;;3.95;2.70;;;17.70;64.80;;;;;;5031541;28;20101;-69
2022/04/29 07:07:36;;;;;;;5.78;3.20;;;17.80;64.90;;;;;;5031781;28;20030;-69
2022/04/29 07:10:02;;;;;;;10.88;3.38;;;17.70;64.80;;;;;;5030915;28;20020;-69
2022/04/29 07:12:27;;;;;;;11.35;3.45;;;17.70;64.80;;;;;;5032586;28;20029;-69
2022/04/29 07:14:53;;;;;;;7.85;3.20;;;17.70;64.80;;;;;;5032792;28;20061;-69
2022/04/29 07:17:20;;;;;;;10.13;3.50;;;17.70;64.80;;;;;;5032434;28;20564;-69
2022/04/29 07:19:46;;;;;;;12.23;3.63;;;17.70;64.80;;;;;;5031711;28;20026;-69
2022/04/29 07:22:12;;;;;;;10.85;3.47;;;17.70;64.80;;;;;;5031515;28;20212;-69
2022/04/29 07:24:38;;;;;;;7.82;3.35;;;17.70;64.80;;;;;;5032551;28;20557;-69
2022/04/29 07:27:05;;;;;;;12.43;3.63;;;17.70;64.80;;;;;;5032583;28;20021;-69
2022/04/29 07:29:31;;;;;;;6.78;3.28;;;17.70;64.80;;;;;;5031462;28;20507;-69
2022/04/29 07:31:56;;;;;;;8.55;3.65;;;17.70;64.80;;;;;;5031248;28;20025;-69
2022/04/29 07:41:44;;;;;;;9.80;3.88;;;17.70;64.80;;;;;;5032479;28;20025;-69
2022/04/29 07:42:36;;;;;;;10.02;3.75;;;17.70;64.90;;;;;;5031297;28;20087;-69
2022/04/29 07:45:02;;;;;;;9.73;3.20;;;17.70;65.00;;;;;;5030751;28;20116;-69
2022/04/29 07:47:27;;;;;;;8.15;3.10;;;17.70;65.00;;;;;;5032525;28;20104;-69
2022/04/29 07:49:53;;;;;;;13.23;3.65;;;17.60;64.90;;;;;;5032390;28;20033;-69
2022/04/29 07:52:19;;;;;;;10.07;3.63;;;17.60;64.90;;;;;;5032291;28;20464;-69
2022/04/29 07:54:44;;;;;;;11.95;3.80;;;17.60;64.90;;;;;;5031852;28;20028;-69
2022/04/29 07:57:10;;;;;;;8.73;4.05;;;17.60;64.80;;;;;;5032182;28;20029;-69
2022/04/29 07:59:36;;;;;;;7.72;3.50;;;17.70;64.90;;;;;;5032088;28;20021;-69
2022/04/29 08:02:01;;;;;;;9.70;3.85;;;17.60;64.80;;;;;;5032387;28;20104;-69
2022/04/29 08:04:27;;;;;;;8.38;3.58;;;17.60;64.80;;;;;;5031025;28;20021;-69
2022/04/29 08:06:53;;;;;;;9.20;3.60;;;17.60;64.90;;;;;;5032183;28;20038;-69
2022/04/29 08:09:18;;;;;;;10.45;3.92;;;17.60;64.80;;;;;;5031801;28;20049;-69
2022/04/29 08:11:44;;;;;;;9.27;3.90;;;17.60;64.90;;;;;;5032034;28;20040;-69
2022/04/29 08:14:10;;;;;;;8.43;3.50;;;17.60;64.80;;;;;;5032185;28;20059;-69
2022/04/29 08:16:35;;;;;;;9.15;3.90;;;17.60;64.90;;;;;;5030833;28;20029;-69
2022/04/29 08:19:02;;;;;;;9.45;3.55;;;17.60;64.80;;;;;;5032103;28;20029;-69
2022/04/29 08:21:27;;;;;;;9.55;4.05;;;17.60;64.80;;;;;;5030810;28;20104;-69
2022/04/29 08:23:53;;;;;;;6.55;3.70;;;17.60;64.90;;;;;;5031794;28;20187;-69
2022/04/29 08:26:18;;;;;;;12.02;3.83;;;17.60;64.90;;;;;;5032009;28;20550;-69
2022/04/29 08:28:44;;;;;;;8.73;3.20;;;17.60;64.80;;;;;;5031995;28;20034;-69
2022/04/29 08:31:10;;;;;;;7.25;3.67;;;17.60;64.80;;;;;;5031925;28;20065;-69
2022/04/29 08:33:35;;;;;;;9.00;3.67;;;17.60;64.80;;;;;;5030712;28;20029;-69
2022/04/29 08:36:03;;;;;;;8.25;3.55;;;17.60;64.90;;;;;;5030968;28;20051;-69
2022/04/29 08:38:28;;;;;;;7.95;3.33;;;17.60;64.80;;;;;;5030589;28;20013;-69
2022/04/29 08:40:54;;;;;;;7.32;3.03;;;17.60;64.90;;;;;;5031706;28;20060;-69
2022/04/29 08:43:21;;;;;;;6.85;3.33;;;17.60;64.90;;;;;;5014362;28;20072;-69
2022/04/29 08:45:46;;;;;;;7.43;3.35;;;17.60;64.90;;;;;;5031735;28;20163;-69
2022/04/29 08:48:12;;;;;;;8.60;4.15;;;17.60;64.80;;;;;;5030817;28;20104;-69
2022/04/29 08:50:38;;;;;;;8.38;3.05;;;17.60;64.80;;;;;;5014118;28;20033;-69
2022/04/29 08:53:04;;;;;;;8.05;3.40;;;17.50;64.80;;;;;;5030537;28;20041;-69
2022/04/29 09:01:13;;;;;;;8.68;3.60;;;17.50;64.80;;;;;;5035437;28;20499;-69
2022/04/29 09:03:39;;;;;;;7.78;3.55;;;17.50;64.80;;;;;;5018541;28;20021;-69
2022/04/29 09:06:06;;;;;;;9.00;3.20;;;17.50;64.80;;;;;;5017848;28;20099;-69
2022/04/29 09:08:41;;;;;;;9.00;3.38;;;17.50;64.80;;;;;;5035035;28;20021;-69
2022/04/29 09:11:07;;;;;;;7.38;3.03;;;17.50;64.80;;;;;;5018001;28;20041;-69
2022/04/29 09:13:35;;;;;;;9.25;3.40;;;17.50;64.80;;;;;;5034238;28;20025;-69
2022/04/29 09:16:10;;;;;;;9.23;3.58;;;17.50;64.80;;;;;;5033965;28;20055;-69
2022/04/29 09:18:46;;;;;;;9.27;3.80;;;17.50;64.80;;;;;;5033829;28;20053;-69
2022/04/29 09:21:19;;;;;;;9.13;3.67;;;17.60;64.80;;;;;;5017351;28;20049;-69
2022/04/29 09:23:46;;;;;;;7.30;3.20;;;17.50;64.80;;;;;;5034931;28;20092;-69
2022/04/29 09:26:25;;;;;;;5.63;3.22;;;17.50;64.80;;;;;;5033928;28;20029;-69
2022/04/29 09:29:15;;;;;;;9.65;2.88;;;17.50;64.70;;;;;;5035092;28;20030;-69
2022/04/29 09:31:54;;;;;;;6.28;2.75;;;17.50;64.80;;;;;;5033391;28;20060;-69
2022/04/29 09:34:20;;;;;;;5.90;3.20;;;17.50;64.70;;;;;;5033798;28;20021;-69
2022/04/29 09:36:45;;;;;;;6.90;2.95;;;17.50;64.90;;;;;;5017039;28;20040;-69
2022/04/29 09:41:56;;;;;;;7.55;3.00;;;17.50;64.80;;;;;;5033504;28;20064;-69
2022/04/29 09:44:32;;;;;;;4.82;2.92;;;17.50;64.80;;;;;;5033612;28;20022;-69
2022/04/29 09:47:11;;;;;;;7.15;2.75;;;17.50;64.70;;;;;;5034343;28;20527;-69
2022/04/29 09:49:37;;;;;;;6.65;3.03;;;17.50;64.70;;;;;;5034745;28;20017;-69
2022/04/29 09:52:03;;;;;;;6.18;3.20;;;17.50;64.80;;;;;;5033081;28;20025;-69
2022/04/29 09:54:38;;;;;;;5.72;3.22;;;17.50;64.80;;;;;;5033262;28;20064;-69
2022/04/29 09:57:14;;;;;;;6.55;3.45;;;17.50;64.80;;;;;;5033294;28;20025;-70
2022/04/29 09:59:47;;;;;;;9.57;3.42;;;17.50;64.70;;;;;;5017331;28;20063;-69
2022/04/29 10:02:16;;;;;;;4.82;2.55;;;17.50;64.80;;;;;;5034401;28;20029;-69
2022/04/29 10:04:44;;;;;;;4.90;2.80;;;17.50;64.80;;;;;;5034139;28;20436;-69
2022/04/29 10:07:11;;;;;;;6.90;3.08;;;17.40;64.70;;;;;;5016593;28;20030;-69
2022/04/29 10:09:40;;;;;;;5.88;3.33;;;17.50;64.80;;;;;;5032307;28;20024;-69
2022/04/29 10:12:09;;;;;;;6.38;3.38;;;17.50;64.80;;;;;;5033062;28;20108;-69
2022/04/29 10:14:36;;;;;;;6.25;3.22;;;17.50;64.70;;;;;;5033054;28;20024;-69
2022/04/29 10:22:52;;;;;;;5.15;3.28;;;17.50;64.60;;;;;;5032893;28;20060;-69
2022/04/29 10:25:21;;;;;;;7.28;3.25;;;17.40;64.70;;;;;;5033915;28;20022;-69
2022/04/29 10:27:49;;;;;;;5.70;3.03;;;17.40;64.70;;;;;;5032672;28;20116;-69
2022/04/29 10:30:17;;;;;;;4.55;2.85;;;17.40;64.70;;;;;;5032659;28;20487;-69
2022/04/29 10:33:02;;;;;;;3.85;2.85;;;17.40;64.70;;;;;;5016505;28;20399;-69
2022/04/29 10:35:43;;;;;;;6.07;3.00;;;17.50;64.50;;;;;;5032468;28;20037;-69
2022/04/29 10:38:12;;;;;;;5.65;3.13;;;17.50;64.60;;;;;;5033749;28;20072;-69
2022/04/29 10:40:38;;;;;;;6.60;3.33;;;17.50;64.70;;;;;;5033513;28;20053;-69
2022/04/29 10:43:07;;;;;;;7.30;3.33;;;17.40;64.60;;;;;;5032350;28;20036;-69
2022/04/29 10:45:33;;;;;;;6.22;2.92;;;17.50;64.70;;;;;;5032296;28;20087;-69
2022/04/29 10:48:23;;;;;;;5.90;3.72;;;17.50;64.70;;;;;;5015827;28;20025;-69
2022/04/29 10:50:49;;;;;;;3.58;2.80;;;17.50;64.60;;;;;;5032434;28;20059;-69
2022/04/29 10:53:14;;;;;;;5.82;3.17;;;17.50;64.70;;;;;;5032211;28;20431;-69
2022/04/29 10:55:40;;;;;;;5.47;2.92;;;17.50;64.60;;;;;;5032126;28;20028;-69
2022/04/29 10:58:19;;;;;;;6.10;2.90;;;17.40;64.60;;;;;;5033189;28;20070;-69
2022/04/29 11:01:14;;;;;;;4.90;2.85;;;17.50;64.50;;;;;;5032002;28;20075;-69
2022/04/29 11:03:46;;;;;;;6.90;3.13;;;17.50;64.30;;;;;;5032284;28;20120;-69
2022/04/29 11:06:12;;;;;;;4.35;3.33;;;17.50;64.60;;;;;;5016342;28;20041;-69
2022/04/29 11:08:39;;;;;;;4.93;3.05;;;17.50;64.60;;;;;;5033126;28;20029;-69
2022/04/29 11:11:04;;;;;;;4.60;2.85;;;17.50;64.60;;;;;;5032651;28;20033;-69
2022/04/29 11:13:34;;;;;;;4.47;3.13;;;17.50;64.50;;;;;;5032015;28;20419;-69
2022/04/29 11:16:08;;;;;;;5.95;3.00;;;17.50;64.50;;;;;;5031748;28;20056;-69
2022/04/29 11:18:34;;;;;;;3.97;2.90;;;17.50;64.50;;;;;;5015055;28;20396;-69
2022/04/29 11:24:40;;;;;;;3.63;2.78;;;17.50;64.50;;;;;;5014273;28;20511;-69
2022/04/29 11:26:51;;;;;;;4.38;2.95;;;17.50;64.50;;;;;;5031863;28;20060;-69
2022/04/29 11:29:17;;;;;;;4.00;2.80;;;17.50;64.60;;;;;;5031682;28;20032;-69
2022/04/29 11:31:43;;;;;;;5.32;2.95;;;17.40;64.50;;;;;;5031625;28;20025;-69
2022/04/29 11:34:10;;;;;;;4.70;2.90;;;17.50;64.50;;;;;;5031334;28;20076;-69
2022/04/29 11:36:37;;;;;;;5.20;2.92;;;17.50;64.50;;;;;;5015122;28;20068;-69
2022/04/29 11:39:23;;;;;;;3.25;2.50;;;17.50;64.50;;;;;;5015021;28;20031;-69
2022/04/29 11:41:53;;;;;;;3.95;2.90;;;17.50;64.30;;;;;;5030834;28;20127;-69
2022/04/29 11:44:38;;;;;;;6.47;3.30;;;17.50;64.50;;;;;;5032416;28;20083;-69
2022/04/29 11:47:05;;;;;;;4.28;2.65;;;17.50;64.50;;;;;;5032284;28;20033;-69
2022/04/29 11:49:32;;;;;;;5.75;3.17;;;17.40;64.50;;;;;;5031294;28;20083;-69
2022/04/29 11:52:17;;;;;;;4.00;2.65;;;17.50;64.50;;;;;;5031118;28;20026;-69
2022/04/29 11:54:56;;;;;;;4.22;3.17;;;17.50;64.30;;;;;;5032565;28;20025;-69
2022/04/29 11:57:23;;;;;;;3.67;3.03;;;17.50;64.50;;;;;;5031367;28;20109;-69
2022/04/29 11:59:49;;;;;;;7.43;3.05;;;17.40;64.50;;;;;;5030960;28;20022;-69
2022/04/29 12:02:22;;;;;;;4.63;2.92;;;17.50;64.50;;;;;;5030945;28;20075;-69
2022/04/29 12:04:57;;;;;;;3.97;3.28;;;17.50;64.50;;;;;;5031261;28;20068;-69
2022/04/29 12:07:24;;;;;;;4.10;2.80;;;17.50;64.50;;;;;;5032161;28;20500;-69
2022/04/29 12:09:50;;;;;;;5.53;2.65;;;17.50;64.50;;;;;;5030728;28;20376;-69
2022/04/29 12:12:30;;;;;;;6.40;3.10;;;17.50;64.50;;;;;;5031009;28;20049;-69
2022/04/29 12:14:56;;;;;;;4.43;2.90;;;17.50;64.40;;;;;;5032261;28;20416;-69
2022/04/29 12:17:36;;;;;;;4.20;2.83;;;17.50;64.50;;;;;;5030775;28;20021;-69
2022/04/29 12:20:02;;;;;;;4.07;2.45;;;17.50;64.40;;;;;;5030965;28;20480;-69
2022/04/29 12:22:38;;;;;;;4.55;3.10;;;17.50;64.40;;;;;;5030878;28;20032;-69
2022/04/29 12:25:22;;;;;;;4.30;3.08;;;17.50;64.40;;;;;;5030793;28;20020;-69
2022/04/29 12:28:10;;;;;;;5.55;3.20;;;17.50;64.30;;;;;;5032163;28;20069;-69
2022/04/29 12:36:13;;;;;;;3.28;2.67;;;17.50;64.50;;;;;;5035222;28;20106;-69
2022/04/29 12:38:42;;;;;;;3.10;2.55;;;17.50;64.50;;;;;;5034750;28;20021;-69
2022/04/29 12:41:22;;;;;;;3.13;2.70;;;17.50;64.50;;;;;;5018395;28;20045;-69
2022/04/29 12:43:48;;;;;;;4.80;2.90;;;17.50;64.40;;;;;;5034703;28;20052;-69
2022/04/29 12:46:21;;;;;;;3.97;2.80;;;17.50;64.60;;;;;;5034303;28;20048;-69
2022/04/29 12:48:50;;;;;;;3.38;2.63;;;17.50;64.50;;;;;;5019037;28;20500;-69
2022/04/29 12:51:34;;;;;;;4.97;3.03;;;17.50;64.50;;;;;;5035742;28;20048;-69
2022/04/29 12:54:01;;;;;;;3.45;2.80;;;17.60;64.40;;;;;;5034333;28;20028;-69
2022/04/29 12:56:31;;;;;;;4.05;2.75;;;17.50;64.50;;;;;;5034377;28;20072;-69
2022/04/29 12:58:58;;;;;;;4.15;2.70;;;17.60;64.50;;;;;;5035469;28;20468;-69
2022/04/29 13:01:24;;;;;;;3.05;2.70;;;17.50;64.50;;;;;;5035481;28;20109;-69
2022/04/29 13:03:56;;;;;;;4.70;2.58;;;17.50;64.40;;;;;;5035475;28;20112;-69
2022/04/29 13:06:23;;;;;;;4.18;2.85;;;17.60;64.50;;;;;;5035303;28;20025;-69
2022/04/29 13:08:55;;;;;;;4.25;3.15;;;17.50;64.50;;;;;;5034331;28;20036;-69
2022/04/29 13:11:21;;;;;;;3.30;2.50;;;17.60;64.50;;;;;;5034960;28;20068;-69
2022/04/29 13:13:51;;;;;;;4.20;3.28;;;17.60;64.50;;;;;;5035086;28;20510;-69
2022/04/29 13:16:17;;;;;;;4.10;3.15;;;17.60;64.50;;;;;;5035022;28;20021;-69
2022/04/29 13:18:43;;;;;;;4.18;2.90;;;17.60;64.50;;;;;;5035029;28;20021;-69
2022/04/29 13:21:12;;;;;;;3.65;2.65;;;17.60;64.50;;;;;;5035069;28;20064;-69